Main page
METAR-TAF:

METAR-TAF

Airports :

Oujda, Morocco

Angads Airport

latitude: 34-47N, longitude: 001-56W, elevation: 468 m

Current weather observation

The report was made 25 minutes ago, at 07:00 UTC
Wind 9 kt from the South/Southwest
Temperature 12°C
Humidity 26%
Pressure 1017 hPa
Visibility 10 km or more
no clouds below 1500 m and no cumulonimbus

METAR: GMFO 220700Z 20009KT CAVOK 12/M07 Q1017 NOSIG

Time: 07:25 (07:25 UTC)

Forecast

The report was made 2 hours and 25 minutes ago, at 05:00 UTC
Forecast valid from 22 at 06 UTC to 23 at 12 UTC
Wind 4 kt from the West/Southwest
Visibility 10 km or more
no clouds below 1500 m and no cumulonimbus
Temporary
from 22 at 12 UTC to 22 at 18 UTC
Wind 14 kt from the North/Northwest

TAF: GMFO 220500Z 2206/2312 24004KT CAVOK TEMPO 2212/2218 34014KT

Weather observations and forecasts of more than 4000 airports (METAR and TAF reports).

The available stations are represented by yellow and red dots on the map.

Hover mouse over dot to see the name of the station.

Then click to see weather observations and forecasts.

To change the map : click on the green buttons with a black cross to zoom in, on the green button with a dash to zoom out, or on the green arrows for adjacent maps.


METAR-TAF: